Time;durP1;ratioP1;P1;durP2;ratioP2;P2;SDS_P1;SDS_P2;PMS_P1;PMS_P2;Temp;Humidity;BMP_temperature;BMP_pressure;BME280_temperature;BME280_humidity;BME280_pressure;Samples;Min_cycle;Max_cycle;Signal;HPM_P1;HPM_P2
2024/02/24 00:02:16;;;;;;;5.47;1.77;;;5.40;99.90;;;;;;5108638;28;20031;-62
2024/02/24 00:04:42;;;;;;;7.80;1.73;;;5.40;99.90;;;;;;5109586;28;20024;-62
2024/02/24 00:07:07;;;;;;;8.07;2.13;;;5.40;99.90;;;;;;5108520;28;20028;-62
2024/02/24 00:09:33;;;;;;;8.70;2.15;;;5.40;99.90;;;;;;5108708;28;20158;-61
2024/02/24 00:11:58;;;;;;;4.93;1.33;;;5.30;99.90;;;;;;5109414;28;20051;-61
2024/02/24 00:14:24;;;;;;;12.57;2.03;;;5.30;99.90;;;;;;5109278;28;20187;-61
2024/02/24 00:16:49;;;;;;;5.57;1.85;;;5.30;99.90;;;;;;5110850;27;20199;-61
2024/02/24 00:19:15;;;;;;;4.35;1.80;;;5.20;99.90;;;;;;5109717;27;20023;-61
2024/02/24 00:21:41;;;;;;;4.35;1.80;;;5.20;99.90;;;;;;5109667;28;20048;-61
2024/02/24 00:24:06;;;;;;;4.60;1.73;;;5.20;99.90;;;;;;5108037;28;20495;-61
2024/02/24 00:26:32;;;;;;;5.63;1.73;;;5.10;99.90;;;;;;5109164;28;20024;-61
2024/02/24 00:28:57;;;;;;;4.75;1.55;;;5.10;99.90;;;;;;5109606;28;20398;-61
2024/02/24 00:31:23;;;;;;;5.15;1.30;;;5.00;99.90;;;;;;5107287;28;20024;-61
2024/02/24 00:33:48;;;;;;;5.30;1.42;;;5.00;99.90;;;;;;5109647;28;20023;-61
2024/02/24 00:36:14;;;;;;;2.70;1.50;;;5.00;99.90;;;;;;5107469;28;20023;-61
2024/02/24 00:38:39;;;;;;;4.18;1.40;;;4.90;99.90;;;;;;5109494;28;20118;-61
2024/02/24 00:41:05;;;;;;;3.30;1.73;;;4.90;99.90;;;;;;5109150;28;20555;-61
2024/02/24 00:43:30;;;;;;;10.90;1.73;;;4.80;99.90;;;;;;5109476;28;20020;-61
2024/02/24 00:45:56;;;;;;;4.72;1.77;;;4.80;99.90;;;;;;5107634;28;20063;-61
2024/02/24 00:48:21;;;;;;;6.38;1.55;;;4.80;99.90;;;;;;5109384;28;20031;-61
2024/02/24 00:50:47;;;;;;;6.55;1.60;;;4.80;99.90;;;;;;5107665;28;20242;-61
2024/02/24 00:53:12;;;;;;;6.22;1.65;;;4.70;99.90;;;;;;5109520;28;20016;-61
2024/02/24 00:55:38;;;;;;;6.78;2.53;;;4.70;99.90;;;;;;5108810;28;20238;-61
2024/02/24 00:58:04;;;;;;;4.22;1.95;;;4.70;99.90;;;;;;5109384;28;20032;-61
2024/02/24 01:00:29;;;;;;;12.52;1.85;;;4.70;99.90;;;;;;5107962;28;20500;-61
2024/02/24 01:02:55;;;;;;;7.00;1.80;;;4.60;99.90;;;;;;5109452;28;20028;-61
2024/02/24 01:05:20;;;;;;;7.40;1.77;;;4.60;99.90;;;;;;5107309;28;20026;-61
2024/02/24 01:07:46;;;;;;;7.93;2.00;;;4.60;99.90;;;;;;5108666;28;20031;-61
2024/02/24 01:10:11;;;;;;;6.63;1.63;;;4.60;99.90;;;;;;5109010;28;20047;-61
2024/02/24 01:12:37;;;;;;;4.75;1.73;;;4.60;99.90;;;;;;5108985;28;20503;-61
2024/02/24 01:15:02;;;;;;;2.50;1.27;;;4.50;99.90;;;;;;5108819;28;20194;-61
2024/02/24 01:17:28;;;;;;;9.35;1.90;;;4.50;99.90;;;;;;5107783;28;20526;-61
2024/02/24 01:19:53;;;;;;;2.60;1.33;;;4.50;99.90;;;;;;5109022;28;20089;-61
2024/02/24 01:22:19;;;;;;;5.78;1.55;;;4.50;99.90;;;;;;5108726;28;20020;-61
2024/02/24 01:24:45;;;;;;;2.88;1.80;;;4.50;99.90;;;;;;5108272;28;20058;-61
2024/02/24 01:27:10;;;;;;;7.07;2.00;;;4.50;99.90;;;;;;5108179;28;20031;-61
2024/02/24 01:29:36;;;;;;;5.28;2.17;;;4.40;99.90;;;;;;5109137;28;20391;-60
2024/02/24 01:32:01;;;;;;;6.55;1.90;;;4.40;99.90;;;;;;5108767;28;20445;-60
2024/02/24 01:34:27;;;;;;;6.68;2.35;;;4.30;99.90;;;;;;5108659;28;20042;-61
2024/02/24 01:36:54;;;;;;;6.82;1.58;;;4.30;99.90;;;;;;5106821;28;20507;-61
2024/02/24 01:39:19;;;;;;;5.35;1.70;;;4.30;99.90;;;;;;5107144;28;20015;-60
2024/02/24 01:41:45;;;;;;;8.73;2.05;;;4.40;99.90;;;;;;5108662;28;20031;-60
2024/02/24 01:44:11;;;;;;;6.15;2.15;;;4.40;99.90;;;;;;5108073;28;20370;-61
2024/02/24 01:46:36;;;;;;;3.70;1.70;;;4.30;99.90;;;;;;5107971;28;20110;-61
2024/02/24 01:49:02;;;;;;;4.25;1.65;;;4.30;99.90;;;;;;5108251;28;20239;-61
2024/02/24 01:51:27;;;;;;;5.15;1.90;;;4.30;99.90;;;;;;5108481;28;20027;-61
2024/02/24 01:53:54;;;;;;;7.00;1.80;;;4.40;99.90;;;;;;5108568;28;20035;-61
2024/02/24 01:56:21;;;;;;;2.83;1.58;;;4.40;99.90;;;;;;5107767;28;20256;-61
2024/02/24 01:58:47;;;;;;;5.65;1.60;;;4.40;99.90;;;;;;5107975;28;20031;-61
2024/02/24 02:01:13;;;;;;;11.43;1.67;;;4.40;99.90;;;;;;5108306;28;20024;-61
2024/02/24 02:03:39;;;;;;;4.93;1.88;;;4.50;99.90;;;;;;5108354;28;20100;-61
2024/02/24 02:06:05;;;;;;;3.50;1.83;;;4.50;99.90;;;;;;5107878;28;20041;-61
2024/02/24 02:08:30;;;;;;;4.72;1.63;;;4.50;99.90;;;;;;5106474;28;20490;-61
2024/02/24 02:10:56;;;;;;;5.35;1.83;;;4.50;99.90;;;;;;5107977;28;20034;-61
2024/02/24 02:13:22;;;;;;;4.45;1.95;;;4.50;99.90;;;;;;5108191;28;20426;-61
2024/02/24 02:15:53;;;;;;;5.03;1.75;;;4.60;99.90;;;;;;5107914;28;20106;-61
2024/02/24 02:18:20;;;;;;;3.95;1.77;;;4.60;99.90;;;;;;5107908;28;20115;-61
2024/02/24 02:20:48;;;;;;;6.25;1.40;;;4.60;99.90;;;;;;5107778;28;20054;-61
2024/02/24 02:23:14;;;;;;;3.13;1.88;;;4.60;99.90;;;;;;5107631;28;20016;-61
2024/02/24 02:25:39;;;;;;;5.90;1.80;;;4.60;99.90;;;;;;5107549;28;20166;-61
2024/02/24 02:28:05;;;;;;;3.38;1.40;;;4.60;99.90;;;;;;5108173;28;20066;-61
2024/02/24 02:30:31;;;;;;;4.82;1.85;;;4.60;99.90;;;;;;5108073;28;20023;-61
2024/02/24 02:32:56;;;;;;;4.63;1.30;;;4.60;99.90;;;;;;5107902;28;20528;-61
2024/02/24 02:35:22;;;;;;;6.45;1.83;;;4.60;99.90;;;;;;5106597;28;20034;-61
2024/02/24 02:37:47;;;;;;;6.13;1.45;;;4.70;99.90;;;;;;5107743;28;20040;-62
2024/02/24 02:40:13;;;;;;;9.32;2.13;;;4.70;99.90;;;;;;5108188;28;20438;-63
2024/02/24 02:42:38;;;;;;;6.10;1.55;;;4.70;99.90;;;;;;5107607;28;20085;-61
2024/02/24 02:45:04;;;;;;;6.55;2.15;;;4.70;99.90;;;;;;5106707;28;20036;-62
2024/02/24 02:47:30;;;;;;;3.65;1.30;;;4.70;99.90;;;;;;5104115;28;20027;-62
2024/02/24 02:49:56;;;;;;;3.88;1.67;;;4.70;99.90;;;;;;5107414;28;20342;-62
2024/02/24 02:52:21;;;;;;;3.42;1.35;;;4.70;99.90;;;;;;5107614;28;20023;-62
2024/02/24 02:54:47;;;;;;;4.80;1.58;;;4.80;99.90;;;;;;5107867;28;20038;-62
2024/02/24 02:57:12;;;;;;;5.47;1.75;;;4.80;99.90;;;;;;5110842;28;20015;-62
2024/02/24 02:59:38;;;;;;;3.85;1.70;;;4.80;99.90;;;;;;5111229;28;20055;-62
2024/02/24 03:02:03;;;;;;;7.00;2.65;;;4.80;99.90;;;;;;5110924;28;20110;-62
2024/02/24 03:04:29;;;;;;;4.47;1.67;;;4.80;99.90;;;;;;5110887;28;20387;-62
2024/02/24 03:06:54;;;;;;;4.15;1.40;;;4.80;99.90;;;;;;5110766;28;20039;-62
2024/02/24 03:09:20;;;;;;;7.40;1.88;;;4.80;99.90;;;;;;5110803;28;20027;-61
2024/02/24 03:11:45;;;;;;;4.60;1.80;;;4.80;99.90;;;;;;5110631;28;20015;-62
2024/02/24 03:14:11;;;;;;;4.50;2.20;;;4.70;99.90;;;;;;5110762;28;20488;-61
2024/02/24 03:16:36;;;;;;;6.13;1.42;;;4.70;99.90;;;;;;5110658;28;20057;-60
2024/02/24 03:19:03;;;;;;;9.52;1.55;;;4.70;99.90;;;;;;5111069;28;20078;-61
2024/02/24 03:21:32;;;;;;;4.57;1.23;;;4.70;99.90;;;;;;5110947;28;20045;-61
2024/02/24 03:24:01;;;;;;;6.38;1.73;;;4.70;99.90;;;;;;5111131;28;20077;-61
2024/02/24 03:26:28;;;;;;;7.88;1.73;;;4.70;99.90;;;;;;5109054;28;20034;-61
2024/02/24 03:28:54;;;;;;;2.47;1.40;;;4.70;99.90;;;;;;5110701;28;20019;-61
2024/02/24 03:31:19;;;;;;;4.30;1.90;;;4.70;99.90;;;;;;5110445;28;20053;-61
2024/02/24 03:33:45;;;;;;;4.43;1.70;;;4.70;99.90;;;;;;5108507;27;20030;-61
2024/02/24 03:36:15;;;;;;;3.88;1.67;;;4.70;99.90;;;;;;5110162;28;20388;-61
2024/02/24 03:38:41;;;;;;;6.10;2.13;;;4.60;99.90;;;;;;5110767;28;20956;-61
2024/02/24 03:41:08;;;;;;;3.63;1.40;;;4.70;99.90;;;;;;5110674;28;20453;-61
2024/02/24 03:43:34;;;;;;;8.98;2.25;;;4.60;99.90;;;;;;5110522;28;20024;-61
2024/02/24 03:46:01;;;;;;;6.10;1.70;;;4.60;99.90;;;;;;5108574;28;20028;-61
2024/02/24 03:48:26;;;;;;;3.97;1.45;;;4.60;99.90;;;;;;5108959;28;20028;-61
2024/02/24 03:50:52;;;;;;;8.05;2.15;;;4.60;99.90;;;;;;5110259;28;20020;-61
2024/02/24 03:53:17;;;;;;;5.30;1.65;;;4.60;99.90;;;;;;5110220;28;20020;-61
2024/02/24 03:55:43;;;;;;;7.10;2.00;;;4.50;99.90;;;;;;5109380;28;20484;-61
2024/02/24 03:58:09;;;;;;;7.75;1.88;;;4.50;99.90;;;;;;5109781;28;20027;-61
2024/02/24 04:00:34;;;;;;;5.53;3.22;;;4.50;99.90;;;;;;5109464;28;20027;-61
2024/02/24 04:03:01;;;;;;;6.32;1.95;;;4.40;99.90;;;;;;5109654;28;20019;-61
2024/02/24 04:05:27;;;;;;;4.30;1.88;;;4.40;99.90;;;;;;5109558;28;20019;-61
2024/02/24 04:07:53;;;;;;;6.13;1.55;;;4.40;99.90;;;;;;5110173;28;20034;-61
2024/02/24 04:10:18;;;;;;;7.88;1.70;;;4.40;99.90;;;;;;5109913;28;20031;-61
2024/02/24 04:12:44;;;;;;;6.13;1.80;;;4.40;99.90;;;;;;5110401;28;20016;-61
2024/02/24 04:15:12;;;;;;;2.00;1.30;;;4.40;99.90;;;;;;5109205;28;20077;-61
2024/02/24 04:17:38;;;;;;;7.20;1.75;;;4.40;99.90;;;;;;5109897;28;20020;-61
2024/02/24 04:20:04;;;;;;;4.03;1.95;;;4.40;99.90;;;;;;5109908;28;20036;-61
2024/02/24 04:22:30;;;;;;;3.53;1.73;;;4.40;99.90;;;;;;5109731;28;20028;-61
2024/02/24 04:24:55;;;;;;;2.72;1.75;;;4.40;99.90;;;;;;5107931;28;20031;-61
2024/02/24 04:27:21;;;;;;;2.85;1.55;;;4.30;99.90;;;;;;5109771;28;20062;-61
2024/02/24 04:29:46;;;;;;;4.72;1.67;;;4.30;99.90;;;;;;5108634;28;20027;-61
2024/02/24 04:32:12;;;;;;;6.95;2.08;;;4.30;99.90;;;;;;5109585;28;20028;-61
2024/02/24 04:34:38;;;;;;;3.17;1.42;;;4.30;99.90;;;;;;5110047;28;20026;-61
2024/02/24 04:37:03;;;;;;;3.80;1.50;;;4.30;99.90;;;;;;5109465;28;20024;-61
2024/02/24 04:39:29;;;;;;;8.32;2.08;;;4.30;99.90;;;;;;5109332;28;20020;-61
2024/02/24 04:41:54;;;;;;;5.53;2.15;;;4.30;99.90;;;;;;5109572;28;20039;-61
2024/02/24 04:44:20;;;;;;;9.30;2.20;;;4.30;99.90;;;;;;5109784;28;20024;-61
2024/02/24 04:46:45;;;;;;;2.90;1.42;;;4.20;99.90;;;;;;5108909;28;20054;-61
2024/02/24 04:49:11;;;;;;;8.57;1.75;;;4.30;99.90;;;;;;5109044;28;20023;-61
2024/02/24 04:51:37;;;;;;;4.28;2.08;;;4.20;99.90;;;;;;5109335;28;20026;-61
2024/02/24 04:54:02;;;;;;;2.90;1.33;;;4.20;99.90;;;;;;5109310;28;20020;-61
2024/02/24 04:56:28;;;;;;;6.82;1.90;;;4.20;99.90;;;;;;5108842;28;20384;-61
2024/02/24 04:58:53;;;;;;;6.70;2.00;;;4.20;99.90;;;;;;5107789;28;20569;-61
2024/02/24 05:01:19;;;;;;;5.22;2.22;;;4.20;99.90;;;;;;5108949;28;20123;-61
2024/02/24 05:03:44;;;;;;;2.53;1.58;;;4.20;99.90;;;;;;5109139;28;20537;-61
2024/02/24 05:06:10;;;;;;;4.85;1.45;;;4.20;99.90;;;;;;5108567;28;20052;-61
2024/02/24 05:08:35;;;;;;;4.38;1.50;;;4.20;99.90;;;;;;5108767;28;20555;-61
2024/02/24 05:11:01;;;;;;;7.72;1.65;;;4.30;99.90;;;;;;5109146;28;20523;-61
2024/02/24 05:13:27;;;;;;;2.65;1.35;;;4.30;99.90;;;;;;5108877;28;20071;-61
2024/02/24 05:15:52;;;;;;;3.53;1.48;;;4.30;99.90;;;;;;5107381;28;20026;-61
2024/02/24 05:18:18;;;;;;;3.65;1.30;;;4.30;99.90;;;;;;5108272;28;20016;-61
2024/02/24 05:20:43;;;;;;;6.15;2.00;;;4.30;99.90;;;;;;5107195;28;20037;-61
2024/02/24 05:23:09;;;;;;;8.18;1.77;;;4.30;99.90;;;;;;5108639;28;20055;-61
2024/02/24 05:25:34;;;;;;;5.65;1.85;;;4.30;99.90;;;;;;5108261;28;20399;-61
2024/02/24 05:28:03;;;;;;;5.15;1.48;;;4.30;99.90;;;;;;5108757;28;20023;-61
2024/02/24 05:30:29;;;;;;;4.07;1.45;;;4.30;99.90;;;;;;5108622;28;20091;-61
2024/02/24 05:32:54;;;;;;;3.17;1.65;;;4.30;99.90;;;;;;5107421;28;20225;-60
2024/02/24 05:35:20;;;;;;;6.35;2.05;;;4.30;99.90;;;;;;5107982;28;20020;-60
2024/02/24 05:37:45;;;;;;;8.18;1.38;;;4.20;99.90;;;;;;5108353;28;20027;-60
2024/02/24 05:40:11;;;;;;;5.25;1.80;;;4.30;99.90;;;;;;5108121;28;20031;-61
2024/02/24 05:42:37;;;;;;;6.85;1.60;;;4.30;99.90;;;;;;5108098;28;20018;-61
2024/02/24 05:45:03;;;;;;;2.35;1.45;;;4.30;99.90;;;;;;5108115;28;20024;-61
2024/02/24 05:47:28;;;;;;;4.55;1.33;;;4.20;99.90;;;;;;5108256;28;20028;-60
2024/02/24 05:49:54;;;;;;;4.93;1.50;;;4.20;99.90;;;;;;5108532;28;20012;-61
2024/02/24 05:52:19;;;;;;;3.33;1.58;;;4.20;99.90;;;;;;5108158;28;20099;-60
2024/02/24 05:54:45;;;;;;;8.20;2.00;;;4.20;99.90;;;;;;5108109;28;20063;-61
2024/02/24 05:57:11;;;;;;;6.53;2.00;;;4.20;99.90;;;;;;5116233;28;20016;-60
2024/02/24 05:59:36;;;;;;;4.57;1.70;;;4.20;99.90;;;;;;5108155;28;20027;-61
2024/02/24 06:02:02;;;;;;;5.72;1.35;;;4.10;99.90;;;;;;5108610;28;20064;-62
2024/02/24 06:04:27;;;;;;;3.55;1.58;;;4.10;99.90;;;;;;5108369;28;20113;-61
2024/02/24 06:06:53;;;;;;;5.07;1.70;;;4.10;99.90;;;;;;5107410;28;20055;-61
2024/02/24 06:09:19;;;;;;;6.85;1.92;;;4.20;99.90;;;;;;5108193;28;20012;-61
2024/02/24 06:11:46;;;;;;;5.10;2.20;;;4.20;99.90;;;;;;5106781;28;20016;-61
2024/02/24 06:14:11;;;;;;;6.45;2.63;;;4.20;99.90;;;;;;5108508;28;20066;-61
2024/02/24 06:16:37;;;;;;;3.58;1.90;;;4.20;99.90;;;;;;5108172;28;20325;-61
2024/02/24 06:19:02;;;;;;;6.68;1.98;;;4.20;99.90;;;;;;5108304;28;20047;-61
2024/02/24 06:21:29;;;;;;;3.10;1.55;;;4.10;99.90;;;;;;5107867;28;20065;-63
2024/02/24 06:23:55;;;;;;;4.05;1.50;;;4.10;99.90;;;;;;5106676;28;20387;-64
2024/02/24 06:26:20;;;;;;;3.05;1.63;;;4.10;99.90;;;;;;5107268;28;20026;-64
2024/02/24 06:28:46;;;;;;;6.03;2.20;;;4.10;99.90;;;;;;5108087;28;20385;-64
2024/02/24 06:31:13;;;;;;;6.80;2.05;;;4.20;99.90;;;;;;5110078;28;20216;-63
2024/02/24 06:33:39;;;;;;;2.70;1.80;;;4.20;99.90;;;;;;5110597;28;20011;-64
2024/02/24 06:36:05;;;;;;;3.70;1.63;;;4.20;99.90;;;;;;5111489;28;20250;-64
2024/02/24 06:38:31;;;;;;;11.23;2.15;;;4.20;99.90;;;;;;5111677;28;20028;-64
2024/02/24 06:40:57;;;;;;;10.30;1.73;;;4.20;99.90;;;;;;5111556;28;20023;-63
2024/02/24 06:43:22;;;;;;;7.43;1.33;;;4.20;99.90;;;;;;5111743;28;20019;-64
2024/02/24 06:45:48;;;;;;;5.85;1.75;;;4.20;99.90;;;;;;5111348;28;20054;-63
2024/02/24 06:48:13;;;;;;;7.63;1.80;;;4.20;99.90;;;;;;5112264;28;20015;-64
2024/02/24 06:50:39;;;;;;;6.97;1.85;;;4.30;99.90;;;;;;5110333;28;20345;-64
2024/02/24 06:53:04;;;;;;;4.82;1.92;;;4.30;99.90;;;;;;5111294;28;20023;-63
2024/02/24 06:55:30;;;;;;;5.28;1.65;;;4.30;99.90;;;;;;5110717;28;20062;-63
2024/02/24 06:57:56;;;;;;;5.97;1.80;;;4.40;99.90;;;;;;5109914;28;20051;-63
2024/02/24 07:00:23;;;;;;;7.15;1.83;;;4.40;99.90;;;;;;5110833;28;21005;-64
2024/02/24 07:02:49;;;;;;;11.63;2.17;;;4.40;99.90;;;;;;5110739;28;20019;-64
2024/02/24 07:05:15;;;;;;;7.90;2.33;;;4.50;99.90;;;;;;5110435;27;20043;-63
2024/02/24 07:07:41;;;;;;;4.50;1.90;;;4.50;99.90;;;;;;5110601;28;20024;-63
2024/02/24 07:10:08;;;;;;;6.75;1.88;;;4.50;99.90;;;;;;5109375;28;20103;-63
2024/02/24 07:12:34;;;;;;;8.43;2.28;;;4.50;99.90;;;;;;5108644;28;20030;-63
2024/02/24 07:15:00;;;;;;;5.10;1.52;;;4.60;99.90;;;;;;5110247;28;20023;-64
2024/02/24 07:17:26;;;;;;;5.07;2.05;;;4.60;99.90;;;;;;5110735;28;20080;-63
2024/02/24 07:19:53;;;;;;;7.15;2.20;;;4.60;99.90;;;;;;5110843;28;20016;-64
2024/02/24 07:22:19;;;;;;;7.45;1.80;;;4.60;99.90;;;;;;5110270;28;20027;-64
2024/02/24 07:24:44;;;;;;;3.85;1.75;;;4.60;99.90;;;;;;5109967;28;20020;-63
2024/02/24 07:27:10;;;;;;;7.50;2.05;;;4.60;99.90;;;;;;5110071;28;20106;-63
2024/02/24 07:29:35;;;;;;;9.50;1.90;;;4.60;99.90;;;;;;5110274;28;20515;-63
2024/02/24 07:32:01;;;;;;;9.63;2.58;;;4.60;99.90;;;;;;5110310;28;20042;-64
2024/02/24 07:34:27;;;;;;;4.35;1.58;;;4.60;99.90;;;;;;5109933;28;20019;-63
2024/02/24 07:36:52;;;;;;;6.18;1.90;;;4.60;99.90;;;;;;5110004;28;20012;-63
2024/02/24 07:39:18;;;;;;;5.55;2.17;;;4.60;99.90;;;;;;5109850;28;20020;-64
2024/02/24 07:41:45;;;;;;;7.78;1.63;;;4.60;99.90;;;;;;5110016;28;20046;-64
2024/02/24 07:44:11;;;;;;;3.08;1.75;;;4.60;99.90;;;;;;5110195;28;20011;-64
2024/02/24 07:46:36;;;;;;;6.80;3.08;;;4.70;99.90;;;;;;5108601;28;20111;-64
2024/02/24 07:49:02;;;;;;;4.57;1.95;;;4.70;99.90;;;;;;5109539;28;20115;-64
2024/02/24 07:51:28;;;;;;;8.32;2.33;;;4.70;99.90;;;;;;5110059;28;20080;-64
2024/02/24 07:53:54;;;;;;;5.13;2.00;;;4.80;99.90;;;;;;5108765;28;20016;-64
2024/02/24 07:56:20;;;;;;;6.65;2.20;;;4.90;99.90;;;;;;5110348;28;20015;-64
2024/02/24 07:58:46;;;;;;;5.43;1.90;;;5.00;99.90;;;;;;5110063;28;20023;-64
2024/02/24 08:01:12;;;;;;;7.18;2.17;;;5.10;99.90;;;;;;5110098;28;20593;-64
2024/02/24 08:03:37;;;;;;;6.85;2.30;;;5.20;99.90;;;;;;5108018;28;20057;-64
2024/02/24 08:06:03;;;;;;;6.13;2.47;;;5.30;99.90;;;;;;5109719;28;20051;-64
2024/02/24 08:08:29;;;;;;;6.13;2.50;;;5.40;99.90;;;;;;5109640;28;20034;-64
2024/02/24 08:10:54;;;;;;;9.38;2.63;;;5.50;99.90;;;;;;5110207;28;20047;-64
2024/02/24 08:13:20;;;;;;;4.65;2.08;;;5.60;99.90;;;;;;5108433;28;20023;-64
2024/02/24 08:15:45;;;;;;;6.10;2.10;;;5.80;99.90;;;;;;5109352;28;20046;-64
2024/02/24 08:18:11;;;;;;;6.75;2.10;;;5.90;99.90;;;;;;5109407;28;20176;-64
2024/02/24 08:20:36;;;;;;;6.38;2.17;;;6.00;99.90;;;;;;5109023;28;20067;-64
2024/02/24 08:23:02;;;;;;;10.30;2.85;;;6.10;99.90;;;;;;5108336;28;20035;-64
2024/02/24 08:25:27;;;;;;;4.75;2.05;;;6.20;99.90;;;;;;5110272;27;20091;-64
2024/02/24 08:27:53;;;;;;;4.30;2.08;;;6.30;99.90;;;;;;5109639;28;20492;-64
2024/02/24 08:30:19;;;;;;;5.15;2.13;;;6.30;99.90;;;;;;5109340;28;20015;-64
2024/02/24 08:32:44;;;;;;;8.57;2.70;;;6.30;99.90;;;;;;5107921;28;20023;-64
2024/02/24 08:35:10;;;;;;;7.25;2.45;;;6.40;99.90;;;;;;5108929;28;20459;-64
2024/02/24 08:37:35;;;;;;;4.60;1.90;;;6.50;99.90;;;;;;5109161;28;20075;-64
2024/02/24 08:40:01;;;;;;;7.18;2.10;;;6.60;99.90;;;;;;5108088;28;20560;-64
2024/02/24 08:42:27;;;;;;;7.10;2.70;;;6.70;99.90;;;;;;5109231;28;20392;-64
2024/02/24 08:44:52;;;;;;;5.47;2.10;;;6.90;99.90;;;;;;5109075;28;20107;-64
2024/02/24 08:47:18;;;;;;;8.88;2.53;;;7.00;99.90;;;;;;5108450;28;20029;-64
2024/02/24 08:49:43;;;;;;;6.13;2.10;;;7.10;99.90;;;;;;5108555;28;20023;-64
2024/02/24 08:52:09;;;;;;;7.10;2.05;;;7.20;99.90;;;;;;5108430;28;20072;-64
2024/02/24 08:54:34;;;;;;;6.80;2.10;;;7.40;99.90;;;;;;5108496;28;20020;-65
2024/02/24 08:57:00;;;;;;;6.53;2.53;;;7.50;99.90;;;;;;5108337;28;20012;-64
2024/02/24 08:59:26;;;;;;;4.50;2.08;;;7.70;99.90;;;;;;5109181;28;20103;-64
2024/02/24 09:01:54;;;;;;;6.13;3.00;;;7.70;99.90;;;;;;5108585;28;20012;-64
2024/02/24 09:04:20;;;;;;;7.03;2.60;;;7.80;99.90;;;;;;5108576;28;20333;-64
2024/02/24 09:06:46;;;;;;;5.07;2.22;;;8.00;99.90;;;;;;5108472;28;20015;-64
2024/02/24 09:09:16;;;;;;;7.13;2.70;;;8.10;99.90;;;;;;5108779;28;20027;-64
2024/02/24 09:11:42;;;;;;;5.67;2.40;;;8.00;99.90;;;;;;5108415;28;20102;-64
2024/02/24 09:14:07;;;;;;;7.13;2.83;;;8.00;99.90;;;;;;5107331;28;20008;-64
2024/02/24 09:16:33;;;;;;;10.52;2.63;;;8.00;99.90;;;;;;5108396;28;20023;-64
2024/02/24 09:18:58;;;;;;;10.15;4.25;;;8.10;99.90;;;;;;5108558;28;20012;-64
2024/02/24 09:21:24;;;;;;;5.35;2.35;;;8.10;99.90;;;;;;5108281;28;20478;-65
2024/02/24 09:23:49;;;;;;;4.47;2.10;;;8.20;99.90;;;;;;5108088;28;20023;-65
2024/02/24 09:26:16;;;;;;;6.80;2.70;;;8.40;99.90;;;;;;5107812;28;20103;-65
2024/02/24 09:28:41;;;;;;;6.13;2.38;;;9.00;99.90;;;;;;5107006;28;20027;-65
2024/02/24 09:31:09;;;;;;;4.90;2.22;;;9.80;99.90;;;;;;5108441;28;20020;-65
2024/02/24 09:33:35;;;;;;;3.78;2.10;;;10.80;99.90;;;;;;5108036;28;20064;-65
2024/02/24 09:36:00;;;;;;;3.65;1.80;;;12.20;98.20;;;;;;5106605;28;20387;-65
2024/02/24 09:38:26;;;;;;;4.03;1.80;;;13.80;94.00;;;;;;5106797;28;20081;-65
2024/02/24 09:40:51;;;;;;;6.00;2.17;;;15.10;91.40;;;;;;5107924;28;20028;-65
2024/02/24 09:43:18;;;;;;;4.25;2.13;;;16.40;85.80;;;;;;5107141;28;20031;-65
2024/02/24 09:45:47;;;;;;;3.65;2.35;;;17.20;80.50;;;;;;5107607;28;20396;-65
2024/02/24 09:48:14;;;;;;;2.47;1.60;;;15.90;81.70;;;;;;5106768;28;20055;-65
2024/02/24 09:50:40;;;;;;;2.85;1.90;;;16.90;78.40;;;;;;5107856;28;20258;-65
2024/02/24 09:53:06;;;;;;;2.08;1.60;;;17.20;78.50;;;;;;5108137;28;20094;-65
2024/02/24 09:55:31;;;;;;;6.68;1.80;;;16.50;77.70;;;;;;5108128;28;20041;-65
2024/02/24 09:57:57;;;;;;;3.25;2.00;;;15.90;78.00;;;;;;5108229;28;20020;-65
2024/02/24 10:00:23;;;;;;;3.63;1.73;;;15.30;80.20;;;;;;5108151;28;20435;-64
2024/02/24 10:02:49;;;;;;;3.30;1.50;;;15.10;81.20;;;;;;5107614;28;20048;-65
2024/02/24 10:05:18;;;;;;;4.13;1.67;;;14.90;80.40;;;;;;5111381;28;20059;-65
2024/02/24 10:07:46;;;;;;;4.57;2.00;;;14.90;81.60;;;;;;5112225;27;20096;-65
2024/02/24 10:10:14;;;;;;;2.97;1.40;;;15.10;81.80;;;;;;5112057;28;20476;-65
2024/02/24 10:13:02;;;;;;;4.55;1.45;;;14.80;82.70;;;;;;5111877;28;20046;-65
2024/02/24 10:15:28;;;;;;;1.52;1.10;;;15.30;81.50;;;;;;5111885;28;20515;-65
2024/02/24 10:17:56;;;;;;;3.55;1.60;;;15.40;81.70;;;;;;5111939;28;20027;-65
2024/02/24 10:20:22;;;;;;;3.25;1.70;;;15.70;80.00;;;;;;5112239;27;20046;-65
2024/02/24 10:22:47;;;;;;;3.85;1.80;;;15.60;80.10;;;;;;5111575;28;20051;-65
2024/02/24 10:25:14;;;;;;;5.88;1.70;;;15.10;81.10;;;;;;5111615;28;20031;-65
2024/02/24 10:27:42;;;;;;;3.90;1.67;;;14.20;81.70;;;;;;5111562;28;20058;-65
2024/02/24 10:30:08;;;;;;;3.83;1.85;;;13.90;83.40;;;;;;5112072;28;20023;-65
2024/02/24 10:32:34;;;;;;;4.75;1.63;;;13.60;85.00;;;;;;5111585;28;20065;-65
2024/02/24 10:35:01;;;;;;;4.30;1.77;;;13.50;86.80;;;;;;5111385;28;20060;-64
2024/02/24 10:37:27;;;;;;;2.28;1.70;;;13.30;86.60;;;;;;5111995;27;20019;-65
2024/02/24 10:39:53;;;;;;;5.00;1.95;;;13.50;86.50;;;;;;5111640;28;20035;-65
2024/02/24 10:42:22;;;;;;;2.92;1.40;;;14.40;83.60;;;;;;5110345;28;20161;-65
2024/02/24 10:44:51;;;;;;;2.30;1.58;;;15.10;81.70;;;;;;5111545;28;20035;-65
2024/02/24 10:47:16;;;;;;;4.22;1.80;;;16.30;80.70;;;;;;5111186;28;20495;-66
2024/02/24 10:49:42;;;;;;;4.50;1.60;;;17.20;77.60;;;;;;5111260;28;20036;-66
2024/02/24 10:52:08;;;;;;;2.03;1.33;;;17.50;76.60;;;;;;5111404;28;20027;-66
2024/02/24 10:54:34;;;;;;;2.65;1.35;;;17.00;73.90;;;;;;5109864;28;20081;-66
2024/02/24 10:57:01;;;;;;;2.58;1.40;;;17.10;74.70;;;;;;5110610;28;20012;-65
2024/02/24 10:59:31;;;;;;;1.65;1.30;;;16.80;73.90;;;;;;5111180;28;20027;-65
2024/02/24 11:02:10;;;;;;;2.38;1.10;;;15.90;74.30;;;;;;5111282;28;20028;-66
2024/02/24 11:04:37;;;;;;;3.42;1.27;;;15.20;78.50;;;;;;5111525;28;20065;-65
2024/02/24 11:07:05;;;;;;;4.13;1.10;;;15.50;77.00;;;;;;5109344;28;20281;-65
2024/02/24 11:09:33;;;;;;;2.83;0.88;;;15.00;75.10;;;;;;5110617;28;20122;-65
2024/02/24 11:12:08;;;;;;;3.03;1.48;;;15.40;76.00;;;;;;5110438;28;20023;-66
2024/02/24 11:14:38;;;;;;;2.20;1.08;;;15.80;73.90;;;;;;5110762;28;20472;-65
2024/02/24 11:17:04;;;;;;;6.18;1.30;;;16.80;73.60;;;;;;5109393;28;20495;-66
2024/02/24 11:19:41;;;;;;;1.73;0.88;;;17.60;71.30;;;;;;5110470;28;20453;-66
2024/02/24 11:22:11;;;;;;;1.30;1.00;;;18.80;70.40;;;;;;5102228;28;20019;-65
2024/02/24 11:24:36;;;;;;;1.20;0.90;;;20.00;71.20;;;;;;5110749;28;20066;-66
2024/02/24 11:27:03;;;;;;;2.28;1.05;;;20.30;65.50;;;;;;5110451;28;20464;-65
2024/02/24 11:29:29;;;;;;;5.47;1.00;;;19.80;65.70;;;;;;5109186;28;20015;-66
2024/02/24 11:32:11;;;;;;;1.85;0.90;;;20.20;64.30;;;;;;5110829;27;20031;-66
2024/02/24 11:34:38;;;;;;;3.28;1.15;;;20.50;70.90;;;;;;5110974;28;20020;-66
2024/02/24 11:37:04;;;;;;;3.53;1.10;;;20.00;72.80;;;;;;5110153;28;20016;-66
2024/02/24 11:39:30;;;;;;;1.98;1.08;;;20.90;64.70;;;;;;5111166;28;20022;-65
2024/02/24 11:41:56;;;;;;;1.27;1.00;;;20.50;61.00;;;;;;5110056;28;20024;-65
2024/02/24 11:44:22;;;;;;;1.20;1.00;;;19.20;62.30;;;;;;5110575;28;20035;-65
2024/02/24 11:46:48;;;;;;;2.03;0.98;;;18.70;63.30;;;;;;5109540;28;20032;-66
2024/02/24 11:49:14;;;;;;;1.65;0.85;;;18.80;65.20;;;;;;5110047;27;20055;-66
2024/02/24 11:51:40;;;;;;;1.92;1.13;;;19.80;63.00;;;;;;5108710;28;20068;-65
2024/02/24 11:54:07;;;;;;;2.45;1.02;;;19.90;61.90;;;;;;5110351;28;20020;-66
2024/02/24 11:56:33;;;;;;;3.17;1.10;;;20.30;61.90;;;;;;5109983;28;20095;-66
2024/02/24 11:59:00;;;;;;;1.95;1.00;;;20.80;61.10;;;;;;5110190;28;20126;-66
2024/02/24 12:01:27;;;;;;;1.10;0.85;;;21.30;60.70;;;;;;5110189;28;20027;-66
2024/02/24 12:03:53;;;;;;;1.20;0.90;;;20.60;58.50;;;;;;5110213;28;20468;-66
2024/02/24 12:06:20;;;;;;;3.05;0.80;;;20.00;59.70;;;;;;5108194;28;20028;-66
2024/02/24 12:08:47;;;;;;;1.85;0.90;;;18.30;61.40;;;;;;5109877;28;20050;-65
2024/02/24 12:11:13;;;;;;;1.75;0.95;;;16.80;65.20;;;;;;5110008;28;20015;-65
2024/02/24 12:13:38;;;;;;;1.33;0.98;;;16.30;67.40;;;;;;5109686;28;20080;-65
2024/02/24 12:16:04;;;;;;;1.83;1.00;;;15.60;69.30;;;;;;5109200;28;20102;-65
2024/02/24 12:18:30;;;;;;;3.83;1.27;;;14.50;70.20;;;;;;5108535;28;20472;-65
2024/02/24 12:20:56;;;;;;;1.70;1.20;;;13.90;72.50;;;;;;5109324;28;20546;-65
2024/02/24 12:23:22;;;;;;;2.13;1.00;;;13.50;75.10;;;;;;5109446;28;20058;-65
2024/02/24 12:25:49;;;;;;;1.40;0.77;;;13.10;75.10;;;;;;5109128;28;20052;-65
2024/02/24 12:28:15;;;;;;;1.58;0.95;;;12.90;76.20;;;;;;5106999;28;20420;-65
2024/02/24 12:30:42;;;;;;;2.55;1.52;;;12.80;77.30;;;;;;5109636;28;20515;-65
2024/02/24 12:33:13;;;;;;;1.48;1.00;;;12.40;77.90;;;;;;5109888;28;20169;-65
2024/02/24 12:35:39;;;;;;;2.72;1.17;;;12.10;80.30;;;;;;5107976;28;20020;-65
2024/02/24 12:38:05;;;;;;;2.33;1.00;;;12.10;80.90;;;;;;5107887;28;20032;-65
2024/02/24 12:40:35;;;;;;;2.85;0.90;;;11.90;81.20;;;;;;5103926;28;20031;-65
2024/02/24 12:43:03;;;;;;;2.03;1.08;;;12.00;80.00;;;;;;5109415;28;20027;-65
2024/02/24 12:45:29;;;;;;;1.98;1.00;;;11.80;81.00;;;;;;5108964;28;20476;-65
2024/02/24 12:47:55;;;;;;;4.55;1.00;;;11.60;82.40;;;;;;5108762;28;20126;-65